Time;durP1;ratioP1;P1;durP2;ratioP2;P2;SDS_P1;SDS_P2;PMS_P1;PMS_P2;Temp;Humidity;BMP_temperature;BMP_pressure;BME280_temperature;BME280_humidity;BME280_pressure;Samples;Min_cycle;Max_cycle;Signal;HPM_P1;HPM_P2
2021/10/29 00:01:33;;;;;;;2.2;1.8;;;;;;;4.4;82.92969;937.162;;;;
2021/10/29 00:03:58;;;;;;;4.7;2;;;;;;;4.54;82.4873;937.095;;;;
2021/10/29 00:06:23;;;;;;;2.9;2;;;;;;;4.66;81.80957;937.1247;;;;
2021/10/29 00:08:48;;;;;;;3.8;2;;;;;;;4.54;82.06836;937.1666;;;;
2021/10/29 00:11:14;;;;;;;3.2;2.3;;;;;;;4.51;82.41406;937.0239;;;;
2021/10/29 00:13:39;;;;;;;3.6;2.2;;;;;;;4.5;82.58008;937.04;;;;
2021/10/29 00:16:06;;;;;;;3.8;2;;;;;;;4.49;82.56641;937.0974;;;;
2021/10/29 00:18:31;;;;;;;3.6;1.8;;;;;;;4.44;82.84863;936.9886;;;;
2021/10/29 00:20:56;;;;;;;2.3;1.7;;;;;;;4.34;83.38086;936.9363;;;;
2021/10/29 00:23:22;;;;;;;2.6;1.7;;;;;;;4.47;83.1377;936.9044;;;;
2021/10/29 00:25:47;;;;;;;2.9;1.7;;;;;;;4.6;82.23828;936.9398;;;;
2021/10/29 00:28:12;;;;;;;2.7;1.9;;;;;;;4.61;82.54395;936.9744;;;;
2021/10/29 00:30:37;;;;;;;2.1;1.5;;;;;;;4.64;81.97656;936.7536;;;;
2021/10/29 00:33:03;;;;;;;3.9;1.7;;;;;;;4.8;81.15039;936.733;;;;
2021/10/29 00:35:28;;;;;;;4.1;1.9;;;;;;;4.72;81.42969;936.8751;;;;
2021/10/29 00:37:53;;;;;;;3.6;1.8;;;;;;;4.71;81.04297;936.8265;;;;
2021/10/29 00:40:19;;;;;;;3.2;1.7;;;;;;;4.57;81.52344;936.6725;;;;
2021/10/29 00:42:44;;;;;;;3.6;1.9;;;;;;;4.59;81.81055;936.7851;;;;
2021/10/29 00:45:09;;;;;;;2.8;1.8;;;;;;;4.33;82.5127;936.7874;;;;
2021/10/29 00:47:35;;;;;;;3;1.9;;;;;;;4.37;82.49707;936.7514;;;;
2021/10/29 00:50:00;;;;;;;3;1.9;;;;;;;4.16;83.00781;936.7564;;;;
2021/10/29 00:52:26;;;;;;;3.4;2.3;;;;;;;4.21;83.19824;936.6962;;;;
2021/10/29 00:54:51;;;;;;;3.7;2;;;;;;;4.3;82.68555;936.6933;;;;
2021/10/29 00:57:18;;;;;;;3.4;2.1;;;;;;;4.39;82.2207;936.7332;;;;
2021/10/29 00:59:43;;;;;;;2.6;1.9;;;;;;;4.42;81.88867;936.7162;;;;
2021/10/29 01:02:07;;;;;;;4.6;1.9;;;;;;;4.38;82.13867;936.6255;;;;
2021/10/29 01:04:33;;;;;;;2.5;1.8;;;;;;;4.35;82.08887;936.6285;;;;
2021/10/29 01:06:58;;;;;;;5.1;1.8;;;;;;;4.37;82.1709;936.6228;;;;
2021/10/29 01:09:23;;;;;;;2.7;1.9;;;;;;;4.23;82.49316;936.5904;;;;
2021/10/29 01:11:48;;;;;;;2.8;2;;;;;;;4.2;82.94727;936.5252;;;;
2021/10/29 01:14:13;;;;;;;3.3;2;;;;;;;4.14;83.33105;936.484;;;;
2021/10/29 01:16:38;;;;;;;1.7;1.4;;;;;;;4.03;84.0498;936.5027;;;;
2021/10/29 01:19:04;;;;;;;2.7;1.8;;;;;;;3.92;84.49121;936.4384;;;;
2021/10/29 01:21:50;;;;;;;3.4;2.2;;;;;;;4.05;84.44922;936.3655;;;;
2021/10/29 01:24:16;;;;;;;4;1.8;;;;;;;4.13;83.75684;936.3956;;;;
2021/10/29 01:26:41;;;;;;;3.8;1.8;;;;;;;4.12;83.42676;936.4213;;;;
2021/10/29 01:29:06;;;;;;;5;1.9;;;;;;;4.06;83.83203;936.3516;;;;
2021/10/29 01:31:32;;;;;;;3.5;2.1;;;;;;;4.16;83.76367;936.3373;;;;
2021/10/29 01:33:57;;;;;;;3.2;1.8;;;;;;;4.22;83.24512;936.3458;;;;
2021/10/29 01:36:22;;;;;;;2.2;1.7;;;;;;;4.32;82.62305;936.3533;;;;
2021/10/29 01:38:49;;;;;;;3.2;1.7;;;;;;;4.36;82.55371;936.2648;;;;
2021/10/29 01:41:12;;;;;;;7.7;2.5;;;;;;;4.38;82.50977;936.199;;;;
2021/10/29 01:43:37;;;;;;;6.2;2.4;;;;;;;4.41;82.34961;936.1011;;;;
2021/10/29 01:46:03;;;;;;;7.6;3.1;;;;;;;4.42;82.22656;936.0848;;;;
2021/10/29 01:48:28;;;;;;;6.7;2.9;;;;;;;4.41;82.16797;936.0923;;;;
2021/10/29 01:51:22;;;;;;;5.9;2.8;;;;;;;4.41;82.35938;936.0386;;;;
2021/10/29 01:54:04;;;;;;;3.6;2.2;;;;;;;4.34;82.33398;936.0033;;;;
2021/10/29 01:56:29;;;;;;;2.5;1.8;;;;;;;4.33;82.47852;935.9998;;;;
2021/10/29 01:58:54;;;;;;;6;2;;;;;;;4.3;82.50781;935.9375;;;;
2021/10/29 02:01:21;;;;;;;3.4;1.7;;;;;;;4.23;82.65137;935.889;;;;
2021/10/29 02:03:47;;;;;;;2.3;1.8;;;;;;;4.3;82.41699;935.8808;;;;
2021/10/29 02:06:12;;;;;;;2.4;1.9;;;;;;;4.22;82.91699;935.8555;;;;
2021/10/29 02:08:37;;;;;;;4.5;2.2;;;;;;;4.2;83.20605;935.7988;;;;
2021/10/29 02:11:02;;;;;;;5.9;2.4;;;;;;;4.4;82.40234;935.9309;;;;
2021/10/29 02:13:27;;;;;;;3.7;2.1;;;;;;;4.55;81.6084;935.8795;;;;
2021/10/29 02:15:52;;;;;;;3.8;1.7;;;;;;;4.56;81.08105;935.8938;;;;
2021/10/29 02:18:18;;;;;;;2.8;1.7;;;;;;;4.45;81.3418;935.7892;;;;
2021/10/29 02:20:44;;;;;;;2.5;1.7;;;;;;;4.28;82.01855;935.7667;;;;
2021/10/29 02:23:38;;;;;;;4.7;2;;;;;;;4.05;82.94238;935.7338;;;;
2021/10/29 02:26:05;;;;;;;3.3;2.1;;;;;;;4.12;83.08008;935.78;;;;
2021/10/29 02:28:32;;;;;;;4.5;1.9;;;;;;;4.18;82.73242;935.6738;;;;
2021/10/29 02:30:58;;;;;;;3.1;2;;;;;;;4.18;82.67578;935.7431;;;;
2021/10/29 02:33:23;;;;;;;2.9;2;;;;;;;4.28;82.30176;935.6919;;;;
2021/10/29 02:35:50;;;;;;;3.2;2;;;;;;;4.22;82.30078;935.717;;;;
2021/10/29 02:38:16;;;;;;;5;2.2;;;;;;;4.3;82.08008;935.7058;;;;
2021/10/29 02:40:41;;;;;;;3.1;1.5;;;;;;;4.36;81.78613;935.709;;;;
2021/10/29 02:43:06;;;;;;;3.8;2;;;;;;;4.33;81.87109;935.6113;;;;
2021/10/29 02:45:32;;;;;;;3;1.7;;;;;;;4.16;82.33496;935.5983;;;;
2021/10/29 02:47:57;;;;;;;3.6;1.8;;;;;;;4.16;82.60449;935.6392;;;;
2021/10/29 02:50:22;;;;;;;2.8;1.7;;;;;;;4.26;82.21875;935.5747;;;;
2021/10/29 02:52:47;;;;;;;2.9;1.8;;;;;;;4.23;82.24805;935.5542;;;;
2021/10/29 02:55:12;;;;;;;5.2;1.8;;;;;;;4.25;82.11426;935.4641;;;;
2021/10/29 02:57:38;;;;;;;2.8;1.9;;;;;;;4.18;82.29297;935.5059;;;;
2021/10/29 03:00:03;;;;;;;6.4;2;;;;;;;4.06;82.96582;935.47;;;;
2021/10/29 03:02:27;;;;;;;4.8;2;;;;;;;4.16;82.97656;935.4911;;;;
2021/10/29 03:04:53;;;;;;;5.7;1.9;;;;;;;4.24;82.5293;935.5678;;;;
2021/10/29 03:07:18;;;;;;;5;2;;;;;;;4.28;81.98438;935.5563;;;;
2021/10/29 03:09:43;;;;;;;5.1;1.7;;;;;;;4.28;81.81738;935.476;;;;
2021/10/29 03:12:09;;;;;;;3;1.8;;;;;;;4.11;82.29102;935.5236;;;;
2021/10/29 03:14:34;;;;;;;6.5;2.1;;;;;;;3.93;83.62793;935.6252;;;;
2021/10/29 03:16:59;;;;;;;1.9;1.6;;;;;;;;;;;;;
2021/10/29 03:19:24;;;;;;;4.4;1.5;;;;;;;;;;;;;
2021/10/29 03:21:49;;;;;;;3.3;1.6;;;;;;;;;;;;;
2021/10/29 03:24:14;;;;;;;2.6;1.7;;;;;;;;;;;;;
2021/10/29 03:26:39;;;;;;;2.6;1.7;;;;;;;;;;;;;
2021/10/29 03:29:05;;;;;;;9;2.4;;;;;;;;;;;;;
2021/10/29 03:31:30;;;;;;;4.4;2;;;;;;;;;;;;;
2021/10/29 03:33:55;;;;;;;7.4;2.3;;;;;;;;;;;;;
2021/10/29 03:36:20;;;;;;;3.6;1.8;;;;;;;;;;;;;
2021/10/29 03:38:53;;;;;;;3.1;1.9;;;;;;;;;;;;;
2021/10/29 03:41:12;;;;;;;5.7;2;;;;;;;;;;;;;
2021/10/29 03:43:38;;;;;;;3.9;2.2;;;;;;;;;;;;;
2021/10/29 03:46:02;;;;;;;3.1;2;;;;;;;;;;;;;
2021/10/29 03:48:36;;;;;;;5;2.2;;;;;;;;;;;;;
2021/10/29 03:51:01;;;;;;;4.8;2.3;;;;;;;;;;;;;
2021/10/29 03:53:27;;;;;;;5.9;2.2;;;;;;;;;;;;;
2021/10/29 03:55:42;;;;;;;6.1;3.5;;;;;;;;;;;;;
2021/10/29 03:58:07;;;;;;;6.3;2.8;;;;;;;;;;;;;
2021/10/29 04:02:37;;;;;;;8.2;3.7;;;;;;;3.92;83.16504;935.4375;;;;
2021/10/29 04:04:56;;;;;;;8.9;5;;;;;;;3.87;83.43359;935.394;;;;
2021/10/29 04:07:21;;;;;;;8.7;4.3;;;;;;;3.79;83.90234;935.4741;;;;
2021/10/29 04:10:03;;;;;;;7.8;3.8;;;;;;;3.73;84.41797;935.3856;;;;
2021/10/29 04:12:27;;;;;;;8.4;3.6;;;;;;;3.76;84.4707;935.4113;;;;
2021/10/29 04:14:52;;;;;;;8.4;3.7;;;;;;;3.93;83.7959;935.4221;;;;
2021/10/29 04:17:18;;;;;;;8.8;4.4;;;;;;;4.05;83.16699;935.3958;;;;
2021/10/29 04:19:42;;;;;;;9;4.8;;;;;;;3.94;83.56152;935.342;;;;
2021/10/29 04:22:08;;;;;;;12.2;5.2;;;;;;;3.89;83.5752;935.2586;;;;
2021/10/29 04:24:33;;;;;;;9.4;5.5;;;;;;;3.88;83.61719;935.2699;;;;
2021/10/29 04:27:00;;;;;;;10.4;5.1;;;;;;;3.91;83.45508;935.2394;;;;
2021/10/29 04:29:25;;;;;;;6.5;3.6;;;;;;;3.79;83.80176;935.3041;;;;
2021/10/29 04:31:50;;;;;;;7.1;4.2;;;;;;;3.81;84.03125;935.2619;;;;
2021/10/29 04:34:14;;;;;;;9.8;4.1;;;;;;;3.84;84.00293;935.287;;;;
2021/10/29 04:36:39;;;;;;;6.1;3.4;;;;;;;3.86;83.88281;935.26;;;;
2021/10/29 04:39:09;;;;;;;6.7;3.5;;;;;;;;;;;;;
2021/10/29 04:41:29;;;;;;;6.7;3.3;;;;;;;;;;;;;
2021/10/29 04:43:54;;;;;;;8.1;3.1;;;;;;;;;;;;;
2021/10/29 04:46:19;;;;;;;10.2;3.4;;;;;;;;;;;;;
2021/10/29 04:48:44;;;;;;;4.6;2.7;;;;;;;;;;;;;
2021/10/29 04:51:09;;;;;;;4.7;2.3;;;;;;;;;;;;;
2021/10/29 04:53:34;;;;;;;3.2;2.2;;;;;;;;;;;;;
2021/10/29 04:56:00;;;;;;;4.6;2.3;;;;;;;;;;;;;
2021/10/29 04:58:25;;;;;;;5.9;2.7;;;;;;;;;;;;;
2021/10/29 05:00:50;;;;;;;7.1;3;;;;;;;;;;;;;
2021/10/29 05:03:15;;;;;;;6;2.5;;;;;;;;;;;;;
2021/10/29 05:05:40;;;;;;;7.2;3.3;;;;;;;;;;;;;
2021/10/29 05:08:05;;;;;;;9.4;3.7;;;;;;;;;;;;;
2021/10/29 05:10:30;;;;;;;5.6;3.2;;;;;;;;;;;;;
2021/10/29 05:12:55;;;;;;;9;3.5;;;;;;;;;;;;;
2021/10/29 05:15:20;;;;;;;5.9;3.9;;;;;;;;;;;;;
2021/10/29 05:17:46;;;;;;;9.6;4.7;;;;;;;;;;;;;
2021/10/29 05:20:11;;;;;;;11.4;5.6;;;;;;;;;;;;;
2021/10/29 05:22:36;;;;;;;10.3;5.7;;;;;;;;;;;;;
2021/10/29 05:25:01;;;;;;;8.5;4.8;;;;;;;;;;;;;
2021/10/29 05:27:26;;;;;;;18.6;8;;;;;;;;;;;;;
2021/10/29 05:30:00;;;;;;;6.1;3.9;;;;;;;;;;;;;
2021/10/29 05:32:25;;;;;;;10.7;5;;;;;;;;;;;;;
2021/10/29 05:34:50;;;;;;;12.6;5.1;;;;;;;;;;;;;
2021/10/29 05:37:15;;;;;;;11.3;4.9;;;;;;;;;;;;;
2021/10/29 05:39:40;;;;;;;9.5;3.6;;;;;;;;;;;;;
2021/10/29 05:42:05;;;;;;;9.2;4.7;;;;;;;;;;;;;
2021/10/29 05:44:30;;;;;;;11.1;4.4;;;;;;;;;;;;;
2021/10/29 05:46:56;;;;;;;8.2;4.4;;;;;;;;;;;;;
2021/10/29 05:49:20;;;;;;;9.2;4.7;;;;;;;;;;;;;
2021/10/29 05:51:47;;;;;;;8.6;5;;;;;;;;;;;;;
2021/10/29 05:56:48;;;;;;;8.9;5.3;;;;;;;;;;;;;
2021/10/29 05:59:13;;;;;;;10.8;5.2;;;;;;;;;;;;;
2021/10/29 06:01:41;;;;;;;8.4;5.2;;;;;;;;;;;;;
2021/10/29 06:04:03;;;;;;;11.7;6.6;;;;;;;;;;;;;
2021/10/29 06:06:28;;;;;;;17.2;7.2;;;;;;;;;;;;;
2021/10/29 06:08:54;;;;;;;10.1;6.7;;;;;;;;;;;;;
2021/10/29 06:11:20;;;;;;;9.9;5.1;;;;;;;;;;;;;
2021/10/29 06:13:44;;;;;;;13.3;6;;;;;;;;;;;;;
2021/10/29 06:16:10;;;;;;;10.7;5.2;;;;;;;;;;;;;
2021/10/29 06:18:34;;;;;;;13.2;5.6;;;;;;;;;;;;;
2021/10/29 06:21:01;;;;;;;11.6;5.6;;;;;;;;;;;;;
2021/10/29 06:23:34;;;;;;;9.1;6.2;;;;;;;;;;;;;
2021/10/29 06:25:53;;;;;;;11.6;5.7;;;;;;;;;;;;;
2021/10/29 06:28:23;;;;;;;11.5;5.7;;;;;;;;;;;;;
2021/10/29 06:30:42;;;;;;;8.5;4.9;;;;;;;;;;;;;
2021/10/29 06:33:06;;;;;;;9.7;5.1;;;;;;;;;;;;;
2021/10/29 06:35:31;;;;;;;9.4;5.4;;;;;;;;;;;;;
2021/10/29 06:37:56;;;;;;;9.5;5.2;;;;;;;;;;;;;
2021/10/29 06:40:22;;;;;;;9.4;5.3;;;;;;;;;;;;;
2021/10/29 06:42:51;;;;;;;11.3;5.2;;;;;;;;;;;;;
2021/10/29 06:45:22;;;;;;;12.3;5.6;;;;;;;;;;;;;
2021/10/29 06:47:44;;;;;;;13.5;6.9;;;;;;;;;;;;;
2021/10/29 06:59:12;;;;;;;9.1;6.7;;;;;;;;;;;;;
2021/10/29 06:59:57;;;;;;;16.9;9;;;;;;;;;;;;;
2021/10/29 07:02:29;;;;;;;31.3;10.5;;;;;;;;;;;;;
2021/10/29 07:05:04;;;;;;;18.2;8.8;;;;;;;;;;;;;
2021/10/29 07:12:22;;;;;;;10.1;5.6;;;;;;;;;;;;;
2021/10/29 07:40:50;;;;;;;12.3;5.7;;;;;;;;;;;;;
2021/10/29 07:43:23;;;;;;;10.5;5.6;;;;;;;;;;;;;
2021/10/29 07:45:41;;;;;;;8;4.5;;;;;;;;;;;;;
2021/10/29 07:48:06;;;;;;;7.8;4.1;;;;;;;;;;;;;
2021/10/29 07:50:31;;;;;;;7.4;3.4;;;;;;;;;;;;;
2021/10/29 07:52:57;;;;;;;6.5;3.5;;;;;;;;;;;;;
2021/10/29 07:55:22;;;;;;;6.4;3.2;;;;;;;;;;;;;
2021/10/29 07:57:47;;;;;;;8.1;3.2;;;;;;;;;;;;;
2021/10/29 08:00:12;;;;;;;5.4;2.7;;;;;;;;;;;;;
2021/10/29 08:02:37;;;;;;;8.1;3;;;;;;;;;;;;;
2021/10/29 08:05:03;;;;;;;6.1;2.7;;;;;;;;;;;;;
2021/10/29 08:07:28;;;;;;;8.2;2.2;;;;;;;;;;;;;
2021/10/29 08:09:53;;;;;;;6.4;2.3;;;;;;;;;;;;;
2021/10/29 08:12:19;;;;;;;5.1;2.8;;;;;;;;;;;;;
2021/10/29 08:14:44;;;;;;;4.8;2.2;;;;;;;;;;;;;
2021/10/29 08:17:09;;;;;;;5.8;2.4;;;;;;;;;;;;;
2021/10/29 08:19:34;;;;;;;3.7;2.6;;;;;;;;;;;;;
2021/10/29 08:21:59;;;;;;;5.5;2.1;;;;;;;;;;;;;
2021/10/29 08:24:24;;;;;;;5.9;2.3;;;;;;;;;;;;;
2021/10/29 08:26:49;;;;;;;3.2;1.8;;;;;;;;;;;;;
2021/10/29 08:29:14;;;;;;;3.2;1.8;;;;;;;;;;;;;
2021/10/29 08:31:39;;;;;;;3.7;1.8;;;;;;;;;;;;;
2021/10/29 08:34:05;;;;;;;2.1;1.5;;;;;;;;;;;;;
2021/10/29 08:36:31;;;;;;;2.9;1.9;;;;;;;;;;;;;
2021/10/29 08:38:56;;;;;;;3.6;1.4;;;;;;;;;;;;;
2021/10/29 08:41:20;;;;;;;2.4;1.5;;;;;;;;;;;;;
2021/10/29 08:43:46;;;;;;;1.6;1;;;;;;;;;;;;;
2021/10/29 08:46:13;;;;;;;1.9;1.2;;;;;;;;;;;;;
2021/10/29 08:48:37;;;;;;;1.4;0.8;;;;;;;;;;;;;
2021/10/29 08:51:02;;;;;;;1.4;0.8;;;;;;;;;;;;;
2021/10/29 08:53:27;;;;;;;0.8;0.6;;;;;;;;;;;;;
2021/10/29 08:55:52;;;;;;;3;1.5;;;;;;;;;;;;;
2021/10/29 08:58:19;;;;;;;5.4;2.2;;;;;;;;;;;;;
2021/10/29 09:01:10;;;;;;;10.5;2.6;;;;;;;;;;;;;
2021/10/29 09:03:40;;;;;;;4.7;2.4;;;;;;;;;;;;;
2021/10/29 09:05:59;;;;;;;3.8;2.5;;;;;;;;;;;;;
2021/10/29 09:08:27;;;;;;;2.8;2.1;;;;;;;;;;;;;
2021/10/29 09:32:33;;;;;;;4.2;1.7;;;;;;;;;;;;;
2021/10/29 09:34:57;;;;;;;8.1;2;;;;;;;;;;;;;
2021/10/29 09:37:22;;;;;;;2.6;1.6;;;;;;;;;;;;;
2021/10/29 09:39:48;;;;;;;3.4;2.1;;;;;;;;;;;;;
2021/10/29 09:42:15;;;;;;;2.3;1.8;;;;;;;;;;;;;
2021/10/29 09:44:37;;;;;;;2.4;1.9;;;;;;;;;;;;;
2021/10/29 09:47:02;;;;;;;4.7;2.2;;;;;;;;;;;;;
2021/10/29 09:49:30;;;;;;;3.6;2.3;;;;;;;;;;;;;
2021/10/29 09:52:05;;;;;;;3.9;2.4;;;;;;;;;;;;;
2021/10/29 09:54:20;;;;;;;4.4;2.2;;;;;;;;;;;;;
2021/10/29 09:56:49;;;;;;;3.7;2.1;;;;;;;;;;;;;
2021/10/29 09:59:08;;;;;;;3.2;1.9;;;;;;;;;;;;;
2021/10/29 10:01:33;;;;;;;2.8;2.1;;;;;;;;;;;;;
2021/10/29 10:03:58;;;;;;;2.7;2.1;;;;;;;;;;;;;
2021/10/29 10:06:24;;;;;;;3;2.2;;;;;;;;;;;;;
2021/10/29 10:08:48;;;;;;;3.5;2.2;;;;;;;;;;;;;
2021/10/29 10:11:13;;;;;;;4.5;2.2;;;;;;;;;;;;;
2021/10/29 10:13:39;;;;;;;4;2.1;;;;;;;;;;;;;
2021/10/29 10:16:04;;;;;;;3.7;2;;;;;;;;;;;;;
2021/10/29 10:18:29;;;;;;;2.9;2.2;;;;;;;;;;;;;
2021/10/29 10:20:55;;;;;;;3.3;2.1;;;;;;;;;;;;;
2021/10/29 10:23:23;;;;;;;4.8;2;;;;;;;;;;;;;
2021/10/29 10:25:58;;;;;;;2.7;1.5;;;;;;;;;;;;;
2021/10/29 10:30:39;;;;;;;2.9;2.2;;;;;;;;;;;;;
2021/10/29 10:40:32;;;;;;;2.5;1.7;;;;;;;;;;;;;
2021/10/29 10:42:52;;;;;;;1.8;1.5;;;;;;;;;;;;;
2021/10/29 10:45:14;;;;;;;1.9;1.5;;;;;;;;;;;;;
2021/10/29 10:47:33;;;;;;;1.9;1.7;;;;;;;;;;;;;
2021/10/29 10:49:57;;;;;;;2.9;1.9;;;;;;;;;;;;;
2021/10/29 10:52:26;;;;;;;1.6;1.5;;;;;;;;;;;;;
2021/10/29 10:54:51;;;;;;;3.4;1.6;;;;;;;;;;;;;
2021/10/29 10:57:50;;;;;;;4.4;1.7;;;;;;;;;;;;;
2021/10/29 10:59:46;;;;;;;2.5;1.4;;;;;;;;;;;;;
2021/10/29 11:02:26;;;;;;;2.1;1.4;;;;;;;;;;;;;
2021/10/29 11:07:19;;;;;;;2;1.1;;;;;;;;;;;;;
2021/10/29 11:11:49;;;;;;;2.7;1.5;;;;;;;;;;;;;
2021/10/29 11:14:14;;;;;;;3.3;1.8;;;;;;;;;;;;;
2021/10/29 11:16:46;;;;;;;3.2;1.2;;;;;;;;;;;;;
2021/10/29 11:19:12;;;;;;;1.3;1;;;;;;;;;;;;;
2021/10/29 11:21:37;;;;;;;2.4;1.6;;;;;;;;;;;;;
2021/10/29 11:24:01;;;;;;;2;1.2;;;;;;;;;;;;;
2021/10/29 11:26:28;;;;;;;2.5;1.4;;;;;;;;;;;;;
2021/10/29 11:28:54;;;;;;;1.6;1.2;;;;;;;;;;;;;
2021/10/29 11:31:17;;;;;;;2.2;1.5;;;;;;;;;;;;;
2021/10/29 11:33:42;;;;;;;2;1.5;;;;;;;;;;;;;
2021/10/29 11:36:07;;;;;;;1.5;1.2;;;;;;;;;;;;;
2021/10/29 11:38:33;;;;;;;1.9;1.3;;;;;;;;;;;;;
2021/10/29 11:40:57;;;;;;;2.1;1.6;;;;;;;;;;;;;
2021/10/29 11:43:22;;;;;;;3;1.5;;;;;;;;;;;;;
2021/10/29 11:45:47;;;;;;;2.4;1.5;;;;;;;;;;;;;
2021/10/29 11:48:13;;;;;;;2.8;1.1;;;;;;;;;;;;;
2021/10/29 11:50:38;;;;;;;1.7;1.1;;;;;;;;;;;;;
2021/10/29 11:53:03;;;;;;;2.2;1.4;;;;;;;;;;;;;
2021/10/29 11:55:38;;;;;;;1.8;1.1;;;;;;;;;;;;;
2021/10/29 11:57:59;;;;;;;3.2;1.2;;;;;;;;;;;;;
2021/10/29 12:00:27;;;;;;;1.5;0.8;;;;;;;;;;;;;
2021/10/29 12:07:34;;;;;;;1.7;0.9;;;;;;;;;;;;;
2021/10/29 12:09:59;;;;;;;1.1;1;;;;;;;;;;;;;
2021/10/29 12:12:27;;;;;;;2.3;0.9;;;;;;;;;;;;;
2021/10/29 12:14:50;;;;;;;1.3;1;;;;;;;;;;;;;
2021/10/29 12:17:23;;;;;;;1.6;1.1;;;;;;;;;;;;;
2021/10/29 12:19:50;;;;;;;1.5;0.8;;;;;;;;;;;;;
2021/10/29 12:22:23;;;;;;;2.1;1;;;;;;;;;;;;;
2021/10/29 12:24:44;;;;;;;1.8;1.3;;;;;;;;;;;;;
2021/10/29 12:27:08;;;;;;;1.5;1;;;;;;;;;;;;;
2021/10/29 12:29:32;;;;;;;1.9;1.1;;;;;;;;;;;;;
2021/10/29 12:32:18;;;;;;;1.2;1;;;;;;;;;;;;;
2021/10/29 12:34:42;;;;;;;0.9;0.9;;;;;;;;;;;;;
2021/10/29 12:53:50;;;;;;;1.5;0.9;;;;;;;;;;;;;
2021/10/29 13:03:24;;;;;;;1.6;1.1;;;;;;;;;;;;;
2021/10/29 13:05:49;;;;;;;1.6;1;;;;;;;;;;;;;
2021/10/29 13:08:21;;;;;;;3.3;1.5;;;;;;;;;;;;;
2021/10/29 13:10:46;;;;;;;4.9;1.4;;;;;;;;;;;;;
2021/10/29 13:13:16;;;;;;;6.1;1.3;;;;;;;;;;;;;
2021/10/29 13:15:37;;;;;;;6.6;2.5;;;;;;;;;;;;;
2021/10/29 13:18:06;;;;;;;7.9;3.5;;;;;;;;;;;;;
2021/10/29 13:20:55;;;;;;;15.4;7;;;;;;;;;;;;;
2021/10/29 13:37:41;;;;;;;3.8;1.5;;;;;;;;;;;;;
2021/10/29 13:52:09;;;;;;;3.2;1.9;;;;;;;;;;;;;
2021/10/29 13:54:24;;;;;;;4.2;2.5;;;;;;;;;;;;;
2021/10/29 13:57:06;;;;;;;2.6;1.3;;;;;;;;;;;;;
2021/10/29 13:59:27;;;;;;;2.3;1.5;;;;;;;;;;;;;
2021/10/29 14:01:50;;;;;;;2.1;1.6;;;;;;;;;;;;;
2021/10/29 14:28:18;;;;;;;4.6;1.8;;;;;;;;;;;;;
2021/10/29 14:30:39;;;;;;;3.4;1.7;;;;;;;;;;;;;
2021/10/29 14:33:03;;;;;;;3.9;1.8;;;;;;;;;;;;;
2021/10/29 14:35:27;;;;;;;3;1.9;;;;;;;;;;;;;
2021/10/29 14:38:01;;;;;;;2.7;1.8;;;;;;;;;;;;;
2021/10/29 14:40:20;;;;;;;4.7;1.8;;;;;;;;;;;;;
2021/10/29 14:42:45;;;;;;;4.7;1.8;;;;;;;;;;;;;
2021/10/29 14:45:11;;;;;;;4.3;1.9;;;;;;;;;;;;;
2021/10/29 14:47:45;;;;;;;4.5;2;;;;;;;;;;;;;
2021/10/29 14:50:11;;;;;;;5.3;2.1;;;;;;;;;;;;;
2021/10/29 14:52:47;;;;;;;6.6;2.3;;;;;;;;;;;;;
2021/10/29 15:07:09;;;;;;;3.4;2;;;;;;;;;;;;;
2021/10/29 15:17:29;;;;;;;10.5;4.7;;;;;;;;;;;;;
2021/10/29 15:26:36;;;;;;;4.7;2.4;;;;;;;;;;;;;
2021/10/29 15:28:46;;;;;;;10.7;4.5;;;;;;;;;;;;;
2021/10/29 15:31:12;;;;;;;14;8.1;;;;;;;;;;;;;
2021/10/29 15:33:47;;;;;;;7.9;4.7;;;;;;;;;;;;;
2021/10/29 15:41:11;;;;;;;9.5;5.1;;;;;;;;;;;;;
2021/10/29 15:43:32;;;;;;;8.2;4.5;;;;;;;;;;;;;
2021/10/29 15:45:38;;;;;;;10.5;6;;;;;;;;;;;;;
2021/10/29 15:48:07;;;;;;;13.1;9;;;;;;;;;;;;;
2021/10/29 15:50:31;;;;;;;18.8;10;;;;;;;;;;;;;
2021/10/29 15:52:52;;;;;;;17.1;10.2;;;;;;;;;;;;;
2021/10/29 15:55:23;;;;;;;19.7;12.2;;;;;;;;;;;;;
2021/10/29 15:57:55;;;;;;;14.5;8.5;;;;;;;;;;;;;
2021/10/29 16:00:16;;;;;;;9.4;6.4;;;;;;;;;;;;;
2021/10/29 16:02:40;;;;;;;10.3;5.9;;;;;;;;;;;;;
2021/10/29 16:17:09;;;;;;;7.5;3.7;;;;;;;;;;;;;
2021/10/29 16:19:28;;;;;;;9.8;3.8;;;;;;;;;;;;;
2021/10/29 16:21:53;;;;;;;7.3;4;;;;;;;;;;;;;
2021/10/29 16:24:19;;;;;;;6.5;4;;;;;;;;;;;;;
2021/10/29 16:26:45;;;;;;;9.3;4.8;;;;;;;;;;;;;
2021/10/29 16:29:12;;;;;;;7.1;4;;;;;;;;;;;;;
2021/10/29 16:31:42;;;;;;;6.1;3.8;;;;;;;;;;;;;
2021/10/29 16:33:59;;;;;;;5.1;3.2;;;;;;;;;;;;;
2021/10/29 16:36:24;;;;;;;7.5;3.9;;;;;;;;;;;;;
2021/10/29 16:38:49;;;;;;;9.3;4.8;;;;;;;;;;;;;
2021/10/29 16:41:14;;;;;;;10.8;5.6;;;;;;;;;;;;;
2021/10/29 16:43:40;;;;;;;7.4;4.5;;;;;;;;;;;;;
2021/10/29 16:46:05;;;;;;;7.5;3.9;;;;;;;;;;;;;
2021/10/29 16:48:30;;;;;;;5.8;3.7;;;;;;;;;;;;;
2021/10/29 16:50:55;;;;;;;6.9;3.9;;;;;;;;;;;;;
2021/10/29 16:53:21;;;;;;;6.6;3.8;;;;;;;;;;;;;
2021/10/29 16:55:46;;;;;;;7.9;4.1;;;;;;;;;;;;;
2021/10/29 16:58:12;;;;;;;4.9;3.8;;;;;;;;;;;;;
2021/10/29 17:00:37;;;;;;;9.9;4;;;;;;;;;;;;;
2021/10/29 17:03:02;;;;;;;6.9;4.9;;;;;;;;;;;;;
2021/10/29 17:05:27;;;;;;;8.7;4.9;;;;;;;;;;;;;
2021/10/29 17:07:52;;;;;;;7.8;5.1;;;;;;;;;;;;;
2021/10/29 17:10:20;;;;;;;9.3;4.8;;;;;;;;;;;;;
2021/10/29 17:12:42;;;;;;;7.7;4.3;;;;;;;;;;;;;
2021/10/29 17:15:08;;;;;;;10.4;5.6;;;;;;;;;;;;;
2021/10/29 17:17:33;;;;;;;8.7;4.7;;;;;;;;;;;;;
2021/10/29 17:19:58;;;;;;;18.3;9.9;;;;;;;;;;;;;
2021/10/29 17:22:23;;;;;;;15.4;7.7;;;;;;;;;;;;;
2021/10/29 17:24:48;;;;;;;15.7;9.1;;;;;;;;;;;;;
2021/10/29 17:27:15;;;;;;;12.2;6.3;;;;;;;;;;;;;
2021/10/29 17:29:39;;;;;;;9.7;5.8;;;;;;;;;;;;;
2021/10/29 17:32:04;;;;;;;17.7;10.8;;;;;;;;;;;;;
2021/10/29 17:34:29;;;;;;;13.3;8.8;;;;;;;;;;;;;
2021/10/29 17:36:55;;;;;;;12.8;7.8;;;;;;;;;;;;;
2021/10/29 17:39:21;;;;;;;12.7;8.1;;;;;;;;;;;;;
2021/10/29 17:41:45;;;;;;;14.2;8.6;;;;;;;;;;;;;
2021/10/29 17:44:12;;;;;;;13.4;8.5;;;;;;;;;;;;;
2021/10/29 17:46:36;;;;;;;18.5;10;;;;;;;;;;;;;
2021/10/29 17:49:01;;;;;;;15.8;9.4;;;;;;;;;;;;;
2021/10/29 17:51:26;;;;;;;13.9;8.6;;;;;;;;;;;;;
2021/10/29 17:53:52;;;;;;;11.6;7.4;;;;;;;;;;;;;
2021/10/29 17:58:46;;;;;;;9.1;5.5;;;;;;;;;;;;;
2021/10/29 18:01:11;;;;;;;7.5;5.2;;;;;;;;;;;;;
2021/10/29 18:03:36;;;;;;;10.7;5;;;;;;;;;;;;;
2021/10/29 18:06:01;;;;;;;9.3;5.5;;;;;;;;;;;;;
2021/10/29 18:08:33;;;;;;;10.2;4.6;;;;;;;;;;;;;
2021/10/29 18:10:52;;;;;;;8.2;4.7;;;;;;;;;;;;;
2021/10/29 18:13:16;;;;;;;8.2;5.2;;;;;;;;;;;;;
2021/10/29 18:15:45;;;;;;;9.4;5.8;;;;;;;;;;;;;
2021/10/29 18:18:07;;;;;;;20.6;12.6;;;;;;;;;;;;;
2021/10/29 18:20:32;;;;;;;11.1;6.9;;;;;;;;;;;;;
2021/10/29 18:22:57;;;;;;;9.1;5.9;;;;;;;;;;;;;
2021/10/29 18:25:22;;;;;;;14.5;9.4;;;;;;;;;;;;;
2021/10/29 18:27:47;;;;;;;21.1;12.1;;;;;;;;;;;;;
2021/10/29 18:30:16;;;;;;;14.8;9.3;;;;;;;;;;;;;
2021/10/29 18:32:38;;;;;;;18.9;11.5;;;;;;;;;;;;;
2021/10/29 18:35:03;;;;;;;18.8;11.7;;;;;;;;;;;;;
2021/10/29 18:37:30;;;;;;;14.2;9.1;;;;;;;;;;;;;
2021/10/29 18:39:53;;;;;;;15.9;9.3;;;;;;;;;;;;;
2021/10/29 18:42:19;;;;;;;24.7;13.7;;;;;;;;;;;;;
2021/10/29 18:44:47;;;;;;;20.3;11.9;;;;;;;;;;;;;
2021/10/29 18:47:12;;;;;;;19.1;11.4;;;;;;;;;;;;;
2021/10/29 18:49:37;;;;;;;19;11.5;;;;;;;;;;;;;
2021/10/29 18:52:02;;;;;;;20.8;10.4;;;;;;;;;;;;;
2021/10/29 18:54:27;;;;;;;18.1;10.9;;;;;;;;;;;;;
2021/10/29 18:56:53;;;;;;;16.3;10.4;;;;;;;;;;;;;
2021/10/29 18:59:19;;;;;;;37.4;24.1;;;;;;;;;;;;;
2021/10/29 19:01:45;;;;;;;103.9;57.9;;;;;;;;;;;;;
2021/10/29 19:04:10;;;;;;;29.1;15.7;;;;;;;;;;;;;
2021/10/29 19:06:35;;;;;;;21.9;14.3;;;;;;;;;;;;;
2021/10/29 19:09:00;;;;;;;17.2;11.3;;;;;;;;;;;;;
2021/10/29 19:11:31;;;;;;;16.9;9.3;;;;;;;;;;;;;
2021/10/29 19:13:50;;;;;;;15.2;7.8;;;;;;;;;;;;;
2021/10/29 19:16:16;;;;;;;9.7;6.5;;;;;;;;;;;;;
2021/10/29 19:18:41;;;;;;;10.7;6.3;;;;;;;;;;;;;
2021/10/29 19:21:06;;;;;;;9.6;6.3;;;;;;;;;;;;;
2021/10/29 19:23:31;;;;;;;10.8;6.2;;;;;;;;;;;;;
2021/10/29 19:25:56;;;;;;;8.9;5.3;;;;;;;;;;;;;
2021/10/29 19:28:22;;;;;;;8.7;5.3;;;;;;;;;;;;;
2021/10/29 19:30:47;;;;;;;10;5.2;;;;;;;;;;;;;
2021/10/29 19:33:13;;;;;;;10.9;6.5;;;;;;;;;;;;;
2021/10/29 19:35:38;;;;;;;31.3;19.8;;;;;;;;;;;;;
2021/10/29 19:38:09;;;;;;;13.2;8.7;;;;;;;;;;;;;
2021/10/29 19:40:32;;;;;;;29.9;25.8;;;;;;;;;;;;;
2021/10/29 19:42:53;;;;;;;9;5.2;;;;;;;;;;;;;
2021/10/29 19:45:18;;;;;;;11.1;6;;;;;;;;;;;;;
2021/10/29 19:48:30;;;;;;;12.1;7.2;;;;;;;;;;;;;
2021/10/29 19:50:49;;;;;;;10.9;6.6;;;;;;;;;;;;;
2021/10/29 19:53:08;;;;;;;12.7;8.6;;;;;;;;;;;;;
2021/10/29 19:55:39;;;;;;;18;12.2;;;;;;;;;;;;;
2021/10/29 19:58:17;;;;;;;11.5;7.2;;;;;;;;;;;;;
2021/10/29 20:00:24;;;;;;;7.8;5.5;;;;;;;;;;;;;
2021/10/29 20:02:49;;;;;;;7.5;5;;;;;;;;;;;;;
2021/10/29 20:05:15;;;;;;;9.9;6.3;;;;;;;;;;;;;
2021/10/29 20:07:39;;;;;;;9.9;6.1;;;;;;;;;;;;;
2021/10/29 20:10:05;;;;;;;13.1;7.5;;;;;;;;;;;;;
2021/10/29 20:12:30;;;;;;;10.8;7.4;;;;;;;;;;;;;
2021/10/29 20:14:56;;;;;;;10.5;6.5;;;;;;;;;;;;;
2021/10/29 20:17:22;;;;;;;12.5;6.9;;;;;;;;;;;;;
2021/10/29 20:19:46;;;;;;;11.8;6.8;;;;;;;;;;;;;
2021/10/29 20:22:11;;;;;;;12.1;6.5;;;;;;;;;;;;;
2021/10/29 20:24:36;;;;;;;11.2;6.5;;;;;;;;;;;;;
2021/10/29 20:27:05;;;;;;;10.5;6.2;;;;;;;;;;;;;
2021/10/29 20:29:31;;;;;;;10.5;7.1;;;;;;;;;;;;;
2021/10/29 20:31:56;;;;;;;9.4;5.6;;;;;;;;;;;;;
2021/10/29 20:34:21;;;;;;;9.4;4.9;;;;;;;;;;;;;
2021/10/29 20:36:46;;;;;;;8.5;4.5;;;;;;;;;;;;;
2021/10/29 20:39:11;;;;;;;6.4;4.1;;;;;;;;;;;;;
2021/10/29 20:41:37;;;;;;;6.8;4.4;;;;;;;;;;;;;
2021/10/29 20:44:02;;;;;;;7;4.3;;;;;;;;;;;;;
2021/10/29 20:46:27;;;;;;;5.7;4.1;;;;;;;;;;;;;
2021/10/29 20:48:53;;;;;;;7.5;4.2;;;;;;;;;;;;;
2021/10/29 20:51:17;;;;;;;6.3;4.1;;;;;;;;;;;;;
2021/10/29 20:53:43;;;;;;;6.5;4.1;;;;;;;;;;;;;
2021/10/29 20:56:07;;;;;;;7.3;4.3;;;;;;;;;;;;;
2021/10/29 20:58:33;;;;;;;5.9;4;;;;;;;;;;;;;
2021/10/29 21:00:58;;;;;;;5.3;3.5;;;;;;;;;;;;;
2021/10/29 21:03:25;;;;;;;5.8;4.2;;;;;;;;;;;;;
2021/10/29 21:05:51;;;;;;;8.1;4;;;;;;;;;;;;;
2021/10/29 21:08:15;;;;;;;7.7;4.3;;;;;;;;;;;;;
2021/10/29 21:10:40;;;;;;;6.6;4;;;;;;;;;;;;;
2021/10/29 21:13:05;;;;;;;6.4;4.1;;;;;;;;;;;;;
2021/10/29 21:15:30;;;;;;;8.4;4.1;;;;;;;;;;;;;
2021/10/29 21:17:55;;;;;;;5.6;3.4;;;;;;;;;;;;;
2021/10/29 21:20:23;;;;;;;5.7;3.7;;;;;;;;;;;;;
2021/10/29 21:22:46;;;;;;;5.5;3.4;;;;;;;;;;;;;
2021/10/29 21:25:11;;;;;;;5.5;3;;;;;;;;;;;;;
2021/10/29 21:27:37;;;;;;;5.4;3.2;;;;;;;;;;;;;
2021/10/29 21:30:02;;;;;;;4.6;2.9;;;;;;;;;;;;;
2021/10/29 21:32:27;;;;;;;3.8;2.3;;;;;;;;;;;;;
2021/10/29 21:34:52;;;;;;;4.2;2.5;;;;;;;;;;;;;
2021/10/29 21:37:18;;;;;;;4.8;2.7;;;;;;;;;;;;;
2021/10/29 21:39:44;;;;;;;5.1;2.9;;;;;;;;;;;;;
2021/10/29 21:42:08;;;;;;;4.9;2.9;;;;;;;;;;;;;
2021/10/29 21:44:33;;;;;;;6.3;3.7;;;;;;;;;;;;;
2021/10/29 21:46:58;;;;;;;6.9;4.4;;;;;;;;;;;;;
2021/10/29 21:49:23;;;;;;;7.3;4.3;;;;;;;;;;;;;
2021/10/29 21:51:49;;;;;;;8.3;4.3;;;;;;;;;;;;;
2021/10/29 21:54:15;;;;;;;6.3;3.6;;;;;;;;;;;;;
2021/10/29 21:56:39;;;;;;;4.7;3.3;;;;;;;;;;;;;
2021/10/29 21:59:04;;;;;;;5.3;3.4;;;;;;;;;;;;;
2021/10/29 22:01:30;;;;;;;4.6;3.2;;;;;;;;;;;;;
2021/10/29 22:03:55;;;;;;;4.2;2.7;;;;;;;;;;;;;
2021/10/29 22:06:21;;;;;;;5.7;3.4;;;;;;;;;;;;;
2021/10/29 22:08:45;;;;;;;4.4;2.9;;;;;;;;;;;;;
2021/10/29 22:11:11;;;;;;;6.6;3.5;;;;;;;;;;;;;
2021/10/29 22:13:36;;;;;;;5.4;3.3;;;;;;;;;;;;;
2021/10/29 22:16:03;;;;;;;4.8;2.8;;;;;;;;;;;;;
2021/10/29 22:18:28;;;;;;;5.6;3.2;;;;;;;;;;;;;